Time;durP1;ratioP1;P1;durP2;ratioP2;P2;SDS_P1;SDS_P2;PMS_P1;PMS_P2;Temp;Humidity;BMP_temperature;BMP_pressure;BME280_temperature;BME280_humidity;BME280_pressure;Samples;Min_cycle;Max_cycle;Signal;HPM_P1;HPM_P2
2024/04/13 00:02:05;;;;;;;12.73;7.45;;;;;;;;;;5522043;25;19989;-66
2024/04/13 00:04:31;;;;;;;12.93;7.57;;;;;;;;;;5521233;25;19990;-66
2024/04/13 00:06:57;;;;;;;12.15;7.10;;;;;;;;;;5521957;25;19989;-66
2024/04/13 00:09:23;;;;;;;12.73;7.40;;;;;;;;;;5521338;25;20320;-66
2024/04/13 00:11:49;;;;;;;12.95;7.55;;;;;;;;;;5521870;25;20383;-65
2024/04/13 00:14:15;;;;;;;12.50;7.30;;;;;;;;;;5521781;25;19990;-65
2024/04/13 00:16:41;;;;;;;12.45;7.25;;;;;;;;;;5521845;25;20011;-65
2024/04/13 00:19:07;;;;;;;12.10;7.13;;;;;;;;;;5520852;25;19993;-65
2024/04/13 00:21:33;;;;;;;12.57;7.30;;;;;;;;;;5521729;25;20029;-64
2024/04/13 00:23:59;;;;;;;12.65;7.35;;;;;;;;;;5521435;25;20033;-65
2024/04/13 00:26:25;;;;;;;12.50;7.30;;;;;;;;;;5521260;25;20046;-65
2024/04/13 00:28:53;;;;;;;12.30;7.20;;;;;;;;;;5521477;25;19994;-64
2024/04/13 00:31:20;;;;;;;11.82;6.93;;;;;;;;;;5521412;25;20065;-65
2024/04/13 00:33:47;;;;;;;12.25;7.10;;;;;;;;;;5520838;25;19993;-65
2024/04/13 00:36:13;;;;;;;12.65;7.38;;;;;;;;;;5520876;25;19993;-65
2024/04/13 00:38:39;;;;;;;12.35;7.22;;;;;;;;;;5521010;25;20556;-66
2024/04/13 00:41:05;;;;;;;12.68;7.85;;;;;;;;;;5520772;25;19993;-66
2024/04/13 00:43:31;;;;;;;11.60;6.80;;;;;;;;;;5519626;25;20025;-65
2024/04/13 00:46:06;;;;;;;12.38;7.28;;;;;;;;;;5521373;25;20466;-65
2024/04/13 00:48:32;;;;;;;11.65;6.82;;;;;;;;;;5521265;25;19997;-64
2024/04/13 00:51:00;;;;;;;11.82;6.97;;;;;;;;;;5518873;25;20061;-64
2024/04/13 00:53:26;;;;;;;11.90;6.97;;;;;;;;;;5521032;25;20065;-65
2024/04/13 00:55:53;;;;;;;11.90;7.00;;;;;;;;;;5520887;25;20519;-64
2024/04/13 00:58:26;;;;;;;12.45;7.30;;;;;;;;;;5520660;25;19993;-65
2024/04/13 01:00:52;;;;;;;12.27;7.20;;;;;;;;;;5520706;25;20017;-65
2024/04/13 01:03:21;;;;;;;11.90;6.90;;;;;;;;;;5519909;25;20009;-65
2024/04/13 01:05:48;;;;;;;12.00;7.00;;;;;;;;;;5520947;25;20042;-65
2024/04/13 01:08:15;;;;;;;11.63;6.80;;;;;;;;;;5520682;25;20439;-65
2024/04/13 01:10:42;;;;;;;11.93;6.97;;;;;;;;;;5520902;25;19993;-65
2024/04/13 01:13:09;;;;;;;11.77;6.90;;;;;;;;;;5520992;25;19997;-65
2024/04/13 01:15:36;;;;;;;11.63;6.80;;;;;;;;;;5520472;25;20005;-64
2024/04/13 01:18:02;;;;;;;11.80;6.90;;;;;;;;;;5520387;25;20004;-64
2024/04/13 01:20:28;;;;;;;12.27;7.18;;;;;;;;;;5523345;25;20033;-64
2024/04/13 01:22:56;;;;;;;12.45;7.30;;;;;;;;;;5520987;25;20013;-64
2024/04/13 01:25:22;;;;;;;12.52;7.30;;;;;;;;;;5520023;25;20034;-64
2024/04/13 01:27:49;;;;;;;12.30;7.20;;;;;;;;;;5520556;25;20005;-64
2024/04/13 01:30:16;;;;;;;12.50;7.30;;;;;;;;;;5520018;25;20012;-64
2024/04/13 01:32:42;;;;;;;12.18;7.20;;;;;;;;;;5520198;25;20004;-66
2024/04/13 01:35:10;;;;;;;12.18;7.10;;;;;;;;;;5520269;25;19997;-67
2024/04/13 01:37:37;;;;;;;11.55;6.80;;;;;;;;;;5520755;25;19990;-66
2024/04/13 01:40:04;;;;;;;11.98;7.00;;;;;;;;;;5519028;25;20068;-64
2024/04/13 01:42:30;;;;;;;12.05;7.05;;;;;;;;;;5520763;25;20068;-64
2024/04/13 01:44:56;;;;;;;12.30;7.20;;;;;;;;;;5519797;25;20450;-64
2024/04/13 01:47:22;;;;;;;12.10;7.10;;;;;;;;;;5519629;25;19989;-65
2024/04/13 01:49:47;;;;;;;11.80;6.90;;;;;;;;;;5520016;25;19989;-64
2024/04/13 01:52:13;;;;;;;12.10;7.07;;;;;;;;;;5519610;25;19993;-64
2024/04/13 01:54:39;;;;;;;12.55;7.32;;;;;;;;;;5519733;25;20004;-65
2024/04/13 01:57:06;;;;;;;12.43;7.28;;;;;;;;;;5519710;25;20075;-65
2024/04/13 01:59:32;;;;;;;12.65;7.38;;;;;;;;;;5519747;25;19989;-65
2024/04/13 02:01:58;;;;;;;12.15;7.10;;;;;;;;;;5519268;25;19997;-65
2024/04/13 02:04:24;;;;;;;12.45;7.32;;;;;;;;;;5521879;25;20070;-66
2024/04/13 02:06:50;;;;;;;12.45;7.28;;;;;;;;;;5523114;25;20038;-65
2024/04/13 02:09:18;;;;;;;12.45;7.28;;;;;;;;;;5522641;25;20074;-66
2024/04/13 02:11:45;;;;;;;13.10;7.78;;;;;;;;;;5523949;25;20170;-66
2024/04/13 02:14:11;;;;;;;12.77;7.55;;;;;;;;;;5523125;25;20574;-66
2024/04/13 02:16:37;;;;;;;12.40;7.20;;;;;;;;;;5523261;25;19998;-65
2024/04/13 02:19:06;;;;;;;13.85;10.23;;;;;;;;;;5523144;25;20448;-66
2024/04/13 02:21:32;;;;;;;12.38;7.22;;;;;;;;;;5522857;25;20411;-66
2024/04/13 02:23:58;;;;;;;12.50;7.30;;;;;;;;;;5522712;25;20042;-66
2024/04/13 02:26:24;;;;;;;15.40;8.98;;;;;;;;;;5522927;25;20005;-65
2024/04/13 02:28:51;;;;;;;12.43;7.25;;;;;;;;;;5523326;25;20350;-66
2024/04/13 02:31:17;;;;;;;12.60;7.35;;;;;;;;;;5522399;25;20497;-66
2024/04/13 02:33:43;;;;;;;13.30;8.02;;;;;;;;;;5522977;25;20009;-66
2024/04/13 02:36:09;;;;;;;13.57;7.70;;;;;;;;;;5522792;25;19993;-66
2024/04/13 02:38:35;;;;;;;12.55;7.38;;;;;;;;;;5523112;25;20042;-65
2024/04/13 02:41:02;;;;;;;12.55;7.32;;;;;;;;;;5523463;25;19997;-66
2024/04/13 02:43:31;;;;;;;12.43;7.30;;;;;;;;;;5522733;25;20005;-65
2024/04/13 02:46:03;;;;;;;12.63;7.38;;;;;;;;;;5522430;25;19993;-66
2024/04/13 02:48:29;;;;;;;13.80;10.68;;;;;;;;;;5523230;25;20351;-65
2024/04/13 02:50:55;;;;;;;12.85;7.50;;;;;;;;;;5522510;25;19993;-66
2024/04/13 02:53:21;;;;;;;12.30;7.20;;;;;;;;;;5521825;25;20585;-66
2024/04/13 02:55:47;;;;;;;12.48;7.35;;;;;;;;;;5520533;25;20116;-65
2024/04/13 02:58:13;;;;;;;12.27;7.18;;;;;;;;;;5524161;25;20293;-65
2024/04/13 03:00:39;;;;;;;12.82;7.55;;;;;;;;;;5522804;26;19993;-65
2024/04/13 03:03:06;;;;;;;13.13;7.72;;;;;;;;;;5520641;25;20714;-65
2024/04/13 03:05:31;;;;;;;12.55;7.30;;;;;;;;;;5520380;25;20347;-66
2024/04/13 03:07:57;;;;;;;12.55;7.32;;;;;;;;;;5522925;25;19985;-64
2024/04/13 03:10:23;;;;;;;12.90;7.53;;;;;;;;;;5522164;25;20404;-64
2024/04/13 03:12:49;;;;;;;12.68;7.50;;;;;;;;;;5522056;26;20041;-64
2024/04/13 03:15:17;;;;;;;12.90;7.60;;;;;;;;;;5519902;25;19997;-65
2024/04/13 03:17:46;;;;;;;13.10;8.00;;;;;;;;;;5522231;26;20052;-65
2024/04/13 03:20:12;;;;;;;13.50;8.85;;;;;;;;;;5522073;26;19989;-65
2024/04/13 03:22:38;;;;;;;12.00;7.10;;;;;;;;;;5522313;26;20005;-64
2024/04/13 03:25:05;;;;;;;13.05;7.65;;;;;;;;;;5521769;26;20436;-65
2024/04/13 03:27:33;;;;;;;12.90;7.50;;;;;;;;;;5522471;26;19993;-65
2024/04/13 03:30:00;;;;;;;12.57;7.43;;;;;;;;;;5520315;26;20467;-64
2024/04/13 03:32:26;;;;;;;12.35;7.20;;;;;;;;;;5522268;26;19986;-67
2024/04/13 03:34:52;;;;;;;12.75;7.45;;;;;;;;;;5521952;26;20005;-65
2024/04/13 03:37:18;;;;;;;13.10;8.00;;;;;;;;;;5522294;26;20071;-64
2024/04/13 03:39:44;;;;;;;12.80;7.50;;;;;;;;;;5522171;26;20001;-64
2024/04/13 03:42:10;;;;;;;12.90;7.68;;;;;;;;;;5522251;26;19989;-64
2024/04/13 03:44:36;;;;;;;12.88;7.65;;;;;;;;;;5522020;26;20005;-65
2024/04/13 03:47:02;;;;;;;12.63;7.35;;;;;;;;;;5521088;26;19997;-64
2024/04/13 03:49:29;;;;;;;12.65;7.40;;;;;;;;;;5521306;26;20561;-65
2024/04/13 03:51:56;;;;;;;13.00;7.60;;;;;;;;;;5521800;25;20001;-64
2024/04/13 03:54:22;;;;;;;12.88;7.50;;;;;;;;;;5521897;25;19997;-65
2024/04/13 03:56:49;;;;;;;12.75;7.45;;;;;;;;;;5521946;25;20438;-64
2024/04/13 03:59:15;;;;;;;13.82;8.00;;;;;;;;;;5520926;26;19990;-65
2024/04/13 04:01:41;;;;;;;12.60;7.32;;;;;;;;;;5521796;25;19993;-64
2024/04/13 04:04:07;;;;;;;12.95;7.53;;;;;;;;;;5522165;25;20009;-65
2024/04/13 04:06:33;;;;;;;13.30;8.27;;;;;;;;;;5522349;26;20004;-65
2024/04/13 04:09:00;;;;;;;13.18;7.78;;;;;;;;;;5521645;25;20385;-65
2024/04/13 04:11:27;;;;;;;13.20;7.80;;;;;;;;;;5521533;26;20343;-64
2024/04/13 04:13:53;;;;;;;13.70;8.77;;;;;;;;;;5521319;25;20210;-64
2024/04/13 04:16:19;;;;;;;13.23;7.82;;;;;;;;;;5519523;26;20008;-65
2024/04/13 04:18:45;;;;;;;13.35;8.00;;;;;;;;;;5521181;26;20004;-65
2024/04/13 04:21:11;;;;;;;13.25;7.85;;;;;;;;;;5520666;26;20482;-65
2024/04/13 04:23:37;;;;;;;13.05;7.75;;;;;;;;;;5521019;26;20061;-66
2024/04/13 04:26:03;;;;;;;13.25;8.05;;;;;;;;;;5520515;26;19996;-65
2024/04/13 04:28:29;;;;;;;13.38;8.00;;;;;;;;;;5520895;25;20125;-65
2024/04/13 04:31:09;;;;;;;13.40;8.00;;;;;;;;;;5521315;26;19997;-65
2024/04/13 04:33:35;;;;;;;13.38;8.02;;;;;;;;;;5521198;25;20444;-65
2024/04/13 04:36:01;;;;;;;13.25;7.82;;;;;;;;;;5521821;26;20005;-64
2024/04/13 04:38:27;;;;;;;13.27;7.90;;;;;;;;;;5519119;26;19999;-66
2024/04/13 04:40:53;;;;;;;13.27;7.90;;;;;;;;;;5521014;26;20423;-65
2024/04/13 04:43:19;;;;;;;15.15;10.45;;;;;;;;;;5520127;26;19985;-65
2024/04/13 04:45:45;;;;;;;13.43;8.10;;;;;;;;;;5518710;25;19994;-64
2024/04/13 04:48:11;;;;;;;13.32;7.90;;;;;;;;;;5502488;25;20009;-64
2024/04/13 04:50:36;;;;;;;13.50;8.50;;;;;;;;;;5510542;25;20459;-64
2024/04/13 04:53:02;;;;;;;13.70;8.98;;;;;;;;;;5483676;26;20030;-65
2024/04/13 04:55:28;;;;;;;13.45;8.20;;;;;;;;;;5502653;26;20021;-64
2024/04/13 04:57:54;;;;;;;13.38;8.35;;;;;;;;;;5520990;25;20000;-65
2024/04/13 05:00:21;;;;;;;13.40;8.10;;;;;;;;;;5520746;25;19997;-65
2024/04/13 05:02:46;;;;;;;13.30;8.10;;;;;;;;;;5521056;25;20005;-65
2024/04/13 05:05:13;;;;;;;13.18;7.80;;;;;;;;;;5520590;25;19990;-65
2024/04/13 05:07:38;;;;;;;13.30;7.90;;;;;;;;;;5518266;26;19989;-65
2024/04/13 05:10:08;;;;;;;13.18;7.82;;;;;;;;;;5520486;25;20013;-65
2024/04/13 05:12:34;;;;;;;13.40;8.10;;;;;;;;;;5520578;25;19989;-65
2024/04/13 05:15:00;;;;;;;13.38;8.30;;;;;;;;;;5520067;25;19993;-65
2024/04/13 05:17:26;;;;;;;13.30;7.88;;;;;;;;;;5520173;25;19997;-65
2024/04/13 05:19:52;;;;;;;13.27;7.90;;;;;;;;;;5519613;25;20005;-64
2024/04/13 05:22:18;;;;;;;13.30;8.02;;;;;;;;;;5483563;26;20000;-65
2024/04/13 05:24:44;;;;;;;12.98;7.68;;;;;;;;;;5481539;26;20474;-65
2024/04/13 05:27:10;;;;;;;13.30;8.10;;;;;;;;;;5483997;26;19993;-65
2024/04/13 05:29:39;;;;;;;13.20;7.90;;;;;;;;;;5481557;26;19997;-65
2024/04/13 05:32:06;;;;;;;16.05;10.00;;;;;;;;;;5484079;26;20444;-64
2024/04/13 05:34:32;;;;;;;13.15;7.78;;;;;;;;;;5483222;26;20050;-64
2024/04/13 05:36:58;;;;;;;13.85;8.68;;;;;;;;;;5483020;26;20005;-65
2024/04/13 05:39:24;;;;;;;13.07;7.70;;;;;;;;;;5482041;26;20001;-65
2024/04/13 05:41:50;;;;;;;13.45;8.27;;;;;;;;;;5493967;26;20009;-65
2024/04/13 05:44:16;;;;;;;13.00;7.60;;;;;;;;;;5519897;26;20435;-65
2024/04/13 05:46:42;;;;;;;13.25;7.93;;;;;;;;;;5520120;25;20041;-65
2024/04/13 05:49:08;;;;;;;14.23;9.20;;;;;;;;;;5519927;25;20001;-64
2024/04/13 05:51:34;;;;;;;14.68;9.25;;;;;;;;;;5519293;25;19989;-64
2024/04/13 05:54:00;;;;;;;13.30;7.90;;;;;;;;;;5519976;25;20012;-64
2024/04/13 05:56:26;;;;;;;13.43;8.23;;;;;;;;;;5520121;25;20030;-64
2024/04/13 05:58:52;;;;;;;13.48;8.65;;;;;;;;;;5520317;25;20001;-65
2024/04/13 06:01:19;;;;;;;12.80;7.50;;;;;;;;;;5520358;25;20656;-65
2024/04/13 06:03:45;;;;;;;12.20;7.18;;;;;;;;;;5519761;25;19997;-66
2024/04/13 06:06:11;;;;;;;12.23;7.10;;;;;;;;;;5519509;25;19989;-66
2024/04/13 06:08:37;;;;;;;11.70;6.90;;;;;;;;;;5519781;25;20070;-64
2024/04/13 06:11:03;;;;;;;11.80;6.95;;;;;;;;;;5517289;25;19990;-65
2024/04/13 06:13:29;;;;;;;11.73;6.85;;;;;;;;;;5518906;25;20093;-65
2024/04/13 06:15:55;;;;;;;12.30;7.20;;;;;;;;;;5519166;25;20037;-64
2024/04/13 06:18:22;;;;;;;12.05;7.10;;;;;;;;;;5519658;25;20472;-65
2024/04/13 06:20:49;;;;;;;12.30;7.68;;;;;;;;;;5519185;25;20012;-65
2024/04/13 06:23:17;;;;;;;11.93;7.05;;;;;;;;;;5518551;25;20428;-65
2024/04/13 06:25:46;;;;;;;12.27;7.18;;;;;;;;;;5519121;25;20001;-65
2024/04/13 06:28:12;;;;;;;12.45;7.40;;;;;;;;;;5519807;25;20001;-65
2024/04/13 06:30:41;;;;;;;12.95;7.70;;;;;;;;;;5519401;25;19993;-64
2024/04/13 06:33:07;;;;;;;12.32;7.20;;;;;;;;;;5518670;25;20158;-65
2024/04/13 06:35:33;;;;;;;12.63;7.40;;;;;;;;;;5518775;25;20028;-66
2024/04/13 06:37:59;;;;;;;12.70;7.60;;;;;;;;;;5518471;25;20339;-64
2024/04/13 06:40:25;;;;;;;12.10;7.10;;;;;;;;;;5518678;25;19997;-66
2024/04/13 06:42:51;;;;;;;13.70;8.35;;;;;;;;;;5518916;25;20725;-66
2024/04/13 06:45:17;;;;;;;11.55;6.75;;;;;;;;;;5518866;25;19990;-66
2024/04/13 06:47:43;;;;;;;11.93;6.95;;;;;;;;;;5518271;25;20022;-66
2024/04/13 06:50:09;;;;;;;14.90;8.02;;;;;;;;;;5520174;25;19993;-64
2024/04/13 06:52:35;;;;;;;12.50;8.57;;;;;;;;;;5522335;25;20038;-66
2024/04/13 06:55:01;;;;;;;12.73;8.05;;;;;;;;;;5522609;25;19997;-66
2024/04/13 06:57:27;;;;;;;12.00;7.00;;;;;;;;;;5523030;25;20079;-66
2024/04/13 06:59:53;;;;;;;13.65;8.05;;;;;;;;;;5522038;25;20436;-66
2024/04/13 07:02:21;;;;;;;11.30;6.63;;;;;;;;;;5521979;25;20064;-66
2024/04/13 07:04:47;;;;;;;12.10;7.20;;;;;;;;;;5521792;25;20001;-64
2024/04/13 07:07:13;;;;;;;11.82;6.97;;;;;;;;;;5522079;25;19986;-66
2024/04/13 07:09:39;;;;;;;12.27;7.70;;;;;;;;;;5521473;25;19989;-65
2024/04/13 07:12:05;;;;;;;12.30;7.60;;;;;;;;;;5521886;25;20000;-67
2024/04/13 07:14:31;;;;;;;12.00;7.25;;;;;;;;;;5521853;25;20471;-67
2024/04/13 07:16:57;;;;;;;11.10;6.50;;;;;;;;;;5521987;25;19985;-66
2024/04/13 07:19:23;;;;;;;11.20;6.50;;;;;;;;;;5522113;25;19997;-67
2024/04/13 07:21:49;;;;;;;11.27;6.60;;;;;;;;;;5520166;25;20000;-67
2024/04/13 07:24:15;;;;;;;11.63;6.97;;;;;;;;;;5521463;25;19998;-67
2024/04/13 07:26:41;;;;;;;12.35;7.45;;;;;;;;;;5522083;25;20038;-65
2024/04/13 07:29:07;;;;;;;12.13;7.18;;;;;;;;;;5522406;25;20009;-65
2024/04/13 07:31:33;;;;;;;11.55;7.30;;;;;;;;;;5520078;25;19993;-63
2024/04/13 07:33:59;;;;;;;10.73;6.28;;;;;;;;;;5521162;25;19996;-63
2024/04/13 07:36:25;;;;;;;12.15;7.18;;;;;;;;;;5521416;25;19996;-64
2024/04/13 07:38:51;;;;;;;12.40;7.20;;;;;;;;;;5520742;25;20341;-61
2024/04/13 07:41:17;;;;;;;12.02;7.00;;;;;;;;;;5521695;25;20092;-64
2024/04/13 07:43:43;;;;;;;12.27;7.10;;;;;;;;;;5520505;25;20005;-63
2024/04/13 07:46:09;;;;;;;13.00;7.55;;;;;;;;;;5521610;25;19993;-63
2024/04/13 07:48:35;;;;;;;12.73;7.50;;;;;;;;;;5519136;26;20028;-63
2024/04/13 07:51:03;;;;;;;12.80;7.40;;;;;;;;;;5519355;25;20030;-65
2024/04/13 07:53:30;;;;;;;13.27;8.20;;;;;;;;;;5520107;25;20066;-63
2024/04/13 07:55:57;;;;;;;13.25;8.48;;;;;;;;;;5519929;25;20089;-65
2024/04/13 07:58:23;;;;;;;13.13;7.72;;;;;;;;;;5520596;25;20008;-64
2024/04/13 08:00:49;;;;;;;13.40;8.30;;;;;;;;;;5518628;26;20068;-56
2024/04/13 08:03:16;;;;;;;13.30;7.53;;;;;;;;;;5515603;26;19993;-58
2024/04/13 08:05:42;;;;;;;13.05;7.65;;;;;;;;;;5518927;25;20000;-63
2024/04/13 08:08:08;;;;;;;12.98;7.50;;;;;;;;;;5519415;25;20069;-63
2024/04/13 08:10:42;;;;;;;12.77;7.40;;;;;;;;;;5519445;25;20342;-63
2024/04/13 08:13:08;;;;;;;13.10;7.70;;;;;;;;;;5519443;25;19998;-63
2024/04/13 08:15:38;;;;;;;13.00;7.57;;;;;;;;;;5519308;25;20076;-62
2024/04/13 08:18:04;;;;;;;12.73;7.38;;;;;;;;;;5520269;25;19997;-62
2024/04/13 08:20:30;;;;;;;13.40;8.95;;;;;;;;;;5520941;25;20352;-59
2024/04/13 08:22:56;;;;;;;13.07;7.82;;;;;;;;;;5520284;25;19997;-62
2024/04/13 08:25:23;;;;;;;13.10;8.43;;;;;;;;;;5521260;25;20007;-63
2024/04/13 08:27:49;;;;;;;12.95;7.47;;;;;;;;;;5520306;25;19994;-62
2024/04/13 08:30:15;;;;;;;13.10;8.57;;;;;;;;;;5520076;25;19993;-62
2024/04/13 08:32:45;;;;;;;12.38;7.70;;;;;;;;;;5520743;25;19995;-63
2024/04/13 08:35:11;;;;;;;12.50;8.13;;;;;;;;;;5489136;25;19990;-63
2024/04/13 08:37:37;;;;;;;12.38;7.20;;;;;;;;;;5483212;26;19990;-63
2024/04/13 08:40:03;;;;;;;12.60;7.30;;;;;;;;;;5483412;26;19996;-60
2024/04/13 08:42:38;;;;;;;12.38;7.30;;;;;;;;;;5482730;26;20534;-63
2024/04/13 08:45:04;;;;;;;12.80;7.70;;;;;;;;;;5483065;26;20447;-63
2024/04/13 08:47:32;;;;;;;12.90;7.63;;;;;;;;;;5483190;26;20113;-62
2024/04/13 08:49:59;;;;;;;13.20;7.90;;;;;;;;;;5482470;26;20051;-58
2024/04/13 08:52:25;;;;;;;13.20;7.80;;;;;;;;;;5483692;26;20029;-59
2024/04/13 08:54:51;;;;;;;13.50;8.38;;;;;;;;;;5480936;26;20013;-58
2024/04/13 08:57:24;;;;;;;13.65;8.15;;;;;;;;;;5482573;26;20009;-57
2024/04/13 08:59:51;;;;;;;13.40;8.10;;;;;;;;;;5483435;26;20409;-58
2024/04/13 09:02:17;;;;;;;12.85;7.55;;;;;;;;;;5482991;26;20038;-56
2024/04/13 09:04:43;;;;;;;15.23;10.02;;;;;;;;;;5482772;26;20083;-55
2024/04/13 09:07:09;;;;;;;13.30;7.80;;;;;;;;;;5482932;26;19994;-59
2024/04/13 09:09:35;;;;;;;15.25;8.52;;;;;;;;;;5483074;26;19997;-62
2024/04/13 09:12:01;;;;;;;13.35;7.93;;;;;;;;;;5482494;26;19994;-62
2024/04/13 09:14:27;;;;;;;13.38;8.07;;;;;;;;;;5481318;26;20384;-60
2024/04/13 09:16:53;;;;;;;13.50;8.27;;;;;;;;;;5482565;26;20037;-60
2024/04/13 09:19:19;;;;;;;14.13;9.07;;;;;;;;;;5483420;26;19994;-59
2024/04/13 09:21:45;;;;;;;16.35;9.30;;;;;;;;;;5482160;26;19994;-60
2024/04/13 09:24:11;;;;;;;13.25;7.85;;;;;;;;;;5483398;26;19986;-62
2024/04/13 09:26:44;;;;;;;13.50;8.30;;;;;;;;;;5482871;26;20330;-59
2024/04/13 09:29:12;;;;;;;14.63;9.60;;;;;;;;;;5482563;26;20006;-60
2024/04/13 09:31:41;;;;;;;13.45;8.30;;;;;;;;;;5481811;26;20390;-61
2024/04/13 09:34:07;;;;;;;13.80;8.60;;;;;;;;;;5482585;26;20327;-62
2024/04/13 09:36:33;;;;;;;14.88;8.73;;;;;;;;;;5480651;26;20010;-63
2024/04/13 09:38:59;;;;;;;13.50;8.38;;;;;;;;;;5481926;26;20298;-60
2024/04/13 09:41:25;;;;;;;13.70;8.45;;;;;;;;;;5501853;26;20002;-61
2024/04/13 09:43:51;;;;;;;13.32;8.10;;;;;;;;;;5519128;25;20001;-61
2024/04/13 09:46:18;;;;;;;14.00;9.13;;;;;;;;;;5519514;25;20029;-63
2024/04/13 09:48:44;;;;;;;13.57;8.48;;;;;;;;;;5514792;25;20001;-59
2024/04/13 09:51:11;;;;;;;15.80;10.00;;;;;;;;;;5501127;26;20010;-58
2024/04/13 09:53:37;;;;;;;14.23;9.27;;;;;;;;;;5516486;25;20358;-61
2024/04/13 09:56:03;;;;;;;13.70;8.98;;;;;;;;;;5513392;26;20081;-61
2024/04/13 09:58:29;;;;;;;13.95;8.65;;;;;;;;;;5517525;26;19990;-59
2024/04/13 10:00:58;;;;;;;13.55;8.68;;;;;;;;;;5518830;25;20017;-61
2024/04/13 10:03:24;;;;;;;13.60;8.70;;;;;;;;;;5518283;25;20042;-60
2024/04/13 10:05:54;;;;;;;13.60;8.70;;;;;;;;;;5512802;25;20099;-62
2024/04/13 10:08:20;;;;;;;13.57;8.50;;;;;;;;;;5489710;25;20013;-62
2024/04/13 10:10:48;;;;;;;14.75;9.70;;;;;;;;;;5481710;26;20408;-62
2024/04/13 10:13:16;;;;;;;13.60;8.70;;;;;;;;;;5482137;26;20031;-60
2024/04/13 10:15:43;;;;;;;13.60;8.47;;;;;;;;;;5481966;26;20461;-61
2024/04/13 10:18:09;;;;;;;13.45;8.20;;;;;;;;;;5482445;25;20153;-60
2024/04/13 10:20:36;;;;;;;13.50;8.48;;;;;;;;;;5483626;26;20563;-60
2024/04/13 10:23:07;;;;;;;13.57;8.60;;;;;;;;;;5482188;25;19998;-61
2024/04/13 10:25:33;;;;;;;13.60;8.77;;;;;;;;;;5483555;26;20017;-61
2024/04/13 10:28:05;;;;;;;13.65;8.77;;;;;;;;;;5485597;26;19994;-61
2024/04/13 10:30:47;;;;;;;13.80;9.20;;;;;;;;;;5484654;25;19998;-57
2024/04/13 10:33:32;;;;;;;13.60;8.65;;;;;;;;;;5485401;25;19994;-61
2024/04/13 10:36:04;;;;;;;13.60;8.77;;;;;;;;;;5488804;25;20001;-61
2024/04/13 10:38:34;;;;;;;14.32;9.52;;;;;;;;;;5522269;25;19993;-60
2024/04/13 10:41:01;;;;;;;13.88;9.43;;;;;;;;;;5520051;25;20045;-61
2024/04/13 10:43:27;;;;;;;14.13;9.65;;;;;;;;;;5522633;25;19989;-60
2024/04/13 10:45:53;;;;;;;13.63;8.80;;;;;;;;;;5523118;25;20001;-62
2024/04/13 10:48:20;;;;;;;14.20;9.20;;;;;;;;;;5491317;25;20069;-61
2024/04/13 10:50:46;;;;;;;17.63;9.23;;;;;;;;;;5486551;26;20018;-60
2024/04/13 10:53:12;;;;;;;13.75;9.20;;;;;;;;;;5485697;26;20034;-61
2024/04/13 10:55:39;;;;;;;15.57;11.57;;;;;;;;;;5484783;26;20005;-61
2024/04/13 10:58:05;;;;;;;14.10;9.70;;;;;;;;;;5484839;26;20023;-61
2024/04/13 11:00:31;;;;;;;13.75;9.10;;;;;;;;;;5485900;26;19990;-60
2024/04/13 11:02:57;;;;;;;13.75;9.20;;;;;;;;;;5483029;26;19994;-62
2024/04/13 11:05:23;;;;;;;13.73;9.10;;;;;;;;;;5485521;26;19994;-63
2024/04/13 11:07:52;;;;;;;13.80;9.15;;;;;;;;;;5485404;26;20528;-63
2024/04/13 11:10:18;;;;;;;16.20;9.85;;;;;;;;;;5126537;26;10001176;-63
2024/04/13 11:12:45;;;;;;;13.77;9.20;;;;;;;;;;5511672;25;20001;-63
2024/04/13 11:15:11;;;;;;;13.80;9.38;;;;;;;;;;5519182;25;20074;-62
2024/04/13 11:17:37;;;;;;;13.90;9.70;;;;;;;;;;5502791;25;20002;-62
2024/04/13 11:20:03;;;;;;;13.77;9.23;;;;;;;;;;5481020;26;20103;-61
2024/04/13 11:22:29;;;;;;;13.85;9.43;;;;;;;;;;5482104;26;19998;-61
2024/04/13 11:24:55;;;;;;;14.00;9.82;;;;;;;;;;5481614;26;20077;-62
2024/04/13 11:27:22;;;;;;;14.73;9.80;;;;;;;;;;5492086;26;20447;-62
2024/04/13 11:29:48;;;;;;;13.93;9.60;;;;;;;;;;5518185;25;20068;-59
2024/04/13 11:32:15;;;;;;;13.90;9.50;;;;;;;;;;5515077;26;20052;-66
2024/04/13 11:34:41;;;;;;;13.93;9.65;;;;;;;;;;5518807;25;20360;-62
2024/04/13 11:37:10;;;;;;;14.27;10.23;;;;;;;;;;5516141;25;20002;-62
2024/04/13 11:39:36;;;;;;;13.88;9.50;;;;;;;;;;5520142;25;20077;-61
2024/04/13 11:42:06;;;;;;;14.30;10.38;;;;;;;;;;5517747;25;20009;-64
2024/04/13 11:44:32;;;;;;;14.48;10.00;;;;;;;;;;5518517;25;19997;-62
2024/04/13 11:46:59;;;;;;;13.90;9.50;;;;;;;;;;5518698;25;20036;-63
2024/04/13 11:49:25;;;;;;;14.20;10.40;;;;;;;;;;5518345;25;20013;-63
2024/04/13 11:51:51;;;;;;;14.40;10.65;;;;;;;;;;5517296;25;20049;-63
2024/04/13 11:54:17;;;;;;;13.98;9.70;;;;;;;;;;5518680;25;20067;-64
2024/04/13 11:56:43;;;;;;;14.00;9.95;;;;;;;;;;5517362;25;20371;-64
2024/04/13 11:59:13;;;;;;;14.10;10.27;;;;;;;;;;5516842;25;19990;-63
2024/04/13 12:01:39;;;;;;;15.50;11.27;;;;;;;;;;5517372;25;19998;-64
2024/04/13 12:04:05;;;;;;;14.20;10.40;;;;;;;;;;5518251;25;20001;-60
2024/04/13 12:06:31;;;;;;;14.25;10.32;;;;;;;;;;5517264;25;19997;-62
2024/04/13 12:08:57;;;;;;;14.25;10.55;;;;;;;;;;5517535;25;20002;-63
2024/04/13 12:11:30;;;;;;;14.20;10.45;;;;;;;;;;5517152;25;19993;-61
2024/04/13 12:14:00;;;;;;;14.20;10.35;;;;;;;;;;5517272;25;20072;-64
2024/04/13 12:16:26;;;;;;;14.70;10.90;;;;;;;;;;5517749;25;19998;-58
2024/04/13 12:18:52;;;;;;;14.07;10.10;;;;;;;;;;5517384;25;20001;-60
2024/04/13 12:21:18;;;;;;;15.43;11.07;;;;;;;;;;5517312;25;20065;-61
2024/04/13 12:23:44;;;;;;;14.13;10.20;;;;;;;;;;5517520;25;20033;-63
2024/04/13 12:26:13;;;;;;;21.63;15.18;;;;;;;;;;5516389;25;20107;-64
2024/04/13 12:28:40;;;;;;;14.50;10.70;;;;;;;;;;5517015;25;19998;-66
2024/04/13 12:31:06;;;;;;;14.25;10.55;;;;;;;;;;5516238;25;20042;-62
2024/04/13 12:33:32;;;;;;;14.30;10.52;;;;;;;;;;5517674;25;20004;-62
2024/04/13 12:35:59;;;;;;;14.35;10.85;;;;;;;;;;5517138;25;20090;-65
2024/04/13 12:38:28;;;;;;;14.23;10.43;;;;;;;;;;5516898;25;19994;-63
2024/04/13 12:40:54;;;;;;;14.18;10.38;;;;;;;;;;5514628;25;20348;-60
2024/04/13 12:43:20;;;;;;;14.30;10.77;;;;;;;;;;5516409;25;20001;-63
2024/04/13 12:45:46;;;;;;;14.30;10.52;;;;;;;;;;5520648;25;20009;-63
2024/04/13 12:48:13;;;;;;;14.60;11.10;;;;;;;;;;5520469;25;19989;-64
2024/04/13 12:50:39;;;;;;;14.30;10.70;;;;;;;;;;5520719;25;20090;-62
2024/04/13 12:53:05;;;;;;;14.23;10.57;;;;;;;;;;5519520;25;19986;-63
2024/04/13 12:55:34;;;;;;;14.88;10.50;;;;;;;;;;5519449;25;20143;-62
2024/04/13 12:58:00;;;;;;;14.75;11.82;;;;;;;;;;5520127;25;19985;-63
2024/04/13 13:00:27;;;;;;;14.60;10.80;;;;;;;;;;5519321;25;20392;-61
2024/04/13 13:02:53;;;;;;;14.37;10.70;;;;;;;;;;5519750;25;19989;-62
2024/04/13 13:05:19;;;;;;;14.50;10.90;;;;;;;;;;5519689;25;19989;-59
2024/04/13 13:07:45;;;;;;;15.45;12.45;;;;;;;;;;5519607;25;19993;-65
2024/04/13 13:10:11;;;;;;;14.40;11.07;;;;;;;;;;5515979;25;20066;-61
2024/04/13 13:12:37;;;;;;;14.15;10.40;;;;;;;;;;5516362;25;20005;-63
2024/04/13 13:15:04;;;;;;;14.18;10.48;;;;;;;;;;5516090;25;19997;-60
2024/04/13 13:17:30;;;;;;;14.23;10.52;;;;;;;;;;5515655;25;20674;-64
2024/04/13 13:19:56;;;;;;;14.27;10.65;;;;;;;;;;5515365;25;20460;-63
2024/04/13 13:22:22;;;;;;;14.30;10.70;;;;;;;;;;5516041;25;20030;-61
2024/04/13 13:24:48;;;;;;;14.40;11.00;;;;;;;;;;5515567;25;20008;-63
2024/04/13 13:27:14;;;;;;;14.38;10.88;;;;;;;;;;5515826;25;20001;-63
2024/04/13 13:29:40;;;;;;;14.50;10.88;;;;;;;;;;5515098;25;20004;-60
2024/04/13 13:32:06;;;;;;;14.90;11.88;;;;;;;;;;5514466;25;19998;-63
2024/04/13 13:34:32;;;;;;;14.40;10.93;;;;;;;;;;5515703;25;20343;-61
2024/04/13 13:36:58;;;;;;;14.25;10.45;;;;;;;;;;5513390;25;20009;-60
2024/04/13 13:39:24;;;;;;;14.32;10.82;;;;;;;;;;5491786;25;20403;-65
2024/04/13 13:41:50;;;;;;;14.20;10.40;;;;;;;;;;5483698;26;20515;-63
2024/04/13 13:44:16;;;;;;;14.40;10.90;;;;;;;;;;5499011;26;20005;-66
2024/04/13 13:46:42;;;;;;;14.40;11.00;;;;;;;;;;5518870;25;20331;-64
2024/04/13 13:49:08;;;;;;;14.50;11.40;;;;;;;;;;5519330;25;20003;-63
2024/04/13 13:51:35;;;;;;;14.55;11.40;;;;;;;;;;5519217;25;20048;-63
2024/04/13 13:54:01;;;;;;;14.50;11.38;;;;;;;;;;5517879;25;20008;-63
2024/04/13 13:56:27;;;;;;;14.70;11.50;;;;;;;;;;5501588;25;19998;-60
2024/04/13 13:58:53;;;;;;;14.90;11.43;;;;;;;;;;5480198;26;19998;-60
2024/04/13 14:01:19;;;;;;;14.40;11.18;;;;;;;;;;5482398;26;19990;-64
2024/04/13 14:03:46;;;;;;;14.50;11.15;;;;;;;;;;5488757;26;20025;-63
2024/04/13 14:06:14;;;;;;;14.70;11.70;;;;;;;;;;5515497;25;20001;-62
2024/04/13 14:08:40;;;;;;;;;;;;;;;;;;5515604;25;20514;-63
2024/04/13 14:11:06;;;;;;;14.95;11.90;;;;;;;;;;5515363;26;19969;-64
2024/04/13 14:13:32;;;;;;;14.90;11.90;;;;;;;;;;5514393;25;20705;-64
2024/04/13 14:15:58;;;;;;;14.80;11.90;;;;;;;;;;5514173;25;19997;-62
2024/04/13 14:18:24;;;;;;;15.75;12.10;;;;;;;;;;5512206;25;20004;-62
2024/04/13 14:20:51;;;;;;;14.75;11.65;;;;;;;;;;5513999;25;20008;-66
2024/04/13 14:23:17;;;;;;;14.60;11.43;;;;;;;;;;5513966;25;20082;-63
2024/04/13 14:25:43;;;;;;;14.50;11.27;;;;;;;;;;5516189;25;20443;-64